createdAt,value
2023-03-16T00:21:41.370Z,3.2
2023-03-16T00:23:09.763Z,3.2
2023-03-16T00:28:03.458Z,3.1
2023-03-16T00:43:24.060Z,2.9
2023-03-16T00:48:12.927Z,2.9
2023-03-16T00:53:16.362Z,2.9
2023-03-16T00:59:15.569Z,2.9
2023-03-16T01:00:53.019Z,2.8
2023-03-16T01:05:38.028Z,2.8
2023-03-16T01:10:41.220Z,2.8
2023-03-16T01:15:43.368Z,2.8
2023-03-16T01:20:45.427Z,2.7
2023-03-16T01:25:47.454Z,2.7
2023-03-16T01:30:49.709Z,2.7
2023-03-16T01:35:52.064Z,2.7
2023-03-16T01:40:54.544Z,2.5
2023-03-16T01:50:58.136Z,2.1
2023-03-16T01:56:00.304Z,1.9
2023-03-16T02:01:02.586Z,1.9
2023-03-16T02:06:04.787Z,1.7
2023-03-16T02:11:06.875Z,1.5
2023-03-16T02:16:09.434Z,1.3
2023-03-16T02:21:11.680Z,1.3
2023-03-16T02:26:14.246Z,1.1
2023-03-16T02:31:17.043Z,1.1
2023-03-16T02:36:19.552Z,1.1
2023-03-16T02:41:22.229Z,1.1
2023-03-16T02:46:25.225Z,0.9
2023-03-16T02:51:44.127Z,0.9
2023-03-16T02:56:37.095Z,0.7
2023-03-16T03:01:54.481Z,0.7
2023-03-16T03:06:48.026Z,0.7
2023-03-16T03:11:50.469Z,0.7
2023-03-16T03:16:52.655Z,0.6
2023-03-16T03:21:54.911Z,0.6
2023-03-16T03:26:57.594Z,0.6
2023-03-16T03:32:00.478Z,0.5
2023-03-16T03:37:02.974Z,0.5
2023-03-16T03:42:08.041Z,0.4
2023-03-16T03:47:10.817Z,0.3
2023-03-16T03:52:13.807Z,0.3
2023-03-16T03:57:16.628Z,0.3
2023-03-16T04:02:26.077Z,0.3
2023-03-16T04:07:37.061Z,0.3
2023-03-16T04:12:29.439Z,0.3
2023-03-16T04:17:31.661Z,0.2
2023-03-16T04:22:33.825Z,0.2
2023-03-16T04:27:36.281Z,0.2
2023-03-16T04:32:39.545Z,0.2
2023-03-16T04:37:41.924Z,0.1
2023-03-16T04:42:44.292Z,0.1
2023-03-16T04:47:46.756Z,0.1
2023-03-16T04:52:48.934Z,0.1
2023-03-16T04:57:51.031Z,0.1
2023-03-16T05:02:53.111Z,0.1
2023-03-16T05:07:55.494Z,0.1
2023-03-16T05:12:57.617Z,0.1
2023-03-16T05:23:00.399Z,0.2
2023-03-16T05:28:02.635Z,0.2
2023-03-16T05:33:05.399Z,0.7
2023-03-16T05:38:07.678Z,0.7
2023-03-16T05:43:10.174Z,1.3
2023-03-16T05:48:12.310Z,1.9
2023-03-16T05:53:14.496Z,2.4
2023-03-16T05:58:16.594Z,2.8
2023-03-16T06:03:18.895Z,3.1
2023-03-16T06:08:21.048Z,3.4
2023-03-16T06:13:23.149Z,3.8
2023-03-16T06:18:25.373Z,4.2
2023-03-16T06:23:27.823Z,4.8
2023-03-16T06:28:31.141Z,4.8
2023-03-16T06:33:34.684Z,5.7
2023-03-16T06:38:36.913Z,5.6
2023-03-16T06:43:39.043Z,6.1
2023-03-16T06:48:41.431Z,6.5
2023-03-16T06:53:43.981Z,7
2023-03-16T06:58:46.089Z,7.6
2023-03-16T07:03:48.187Z,9.5
2023-03-16T07:08:50.299Z,9.7
2023-03-16T07:13:52.326Z,11.8
2023-03-16T07:18:54.365Z,13.7
2023-03-16T07:23:56.444Z,14.8
2023-03-16T07:34:00.902Z,13.2
2023-03-16T07:39:02.903Z,13.3
2023-03-16T07:44:05.008Z,13.9
2023-03-16T07:49:07.096Z,14.8
2023-03-16T07:54:09.335Z,18.1
2023-03-16T07:59:11.613Z,18.2
2023-03-16T08:04:13.840Z,19.2
2023-03-16T08:09:16.235Z,19.7
2023-03-16T08:14:18.257Z,18
2023-03-16T08:19:23.800Z,15.5
2023-03-16T08:24:25.970Z,15.5
2023-03-16T08:29:28.003Z,16.9
2023-03-16T08:34:29.932Z,16.4
2023-03-16T08:39:32.039Z,17.6
2023-03-16T08:44:34.119Z,18.7
2023-03-16T08:49:36.244Z,20.2
2023-03-16T08:54:38.528Z,20.1
2023-03-16T08:59:40.580Z,22.5
2023-03-16T09:04:42.848Z,19.9
2023-03-16T09:09:45.171Z,24
2023-03-16T09:14:47.241Z,24.3
2023-03-16T09:20:05.469Z,26.5
2023-03-16T09:24:56.111Z,26.4
2023-03-16T09:29:58.160Z,26.4
2023-03-16T09:35:00.225Z,26.5
2023-03-16T09:40:13.169Z,22.1
2023-03-16T09:45:05.249Z,21.7
2023-03-16T09:50:07.705Z,18.6
2023-03-16T09:55:10.153Z,19.4
2023-03-16T10:00:12.306Z,19
2023-03-16T10:05:14.304Z,17.4
2023-03-16T10:10:16.325Z,18.2
2023-03-16T10:15:18.774Z,23.5
2023-03-16T10:20:20.998Z,22.9
2023-03-16T10:25:23.132Z,19.6
2023-03-16T10:30:25.249Z,18
2023-03-16T10:35:28.273Z,14.4
2023-03-16T10:40:31.658Z,14.1
2023-03-16T10:45:34.185Z,20.3
2023-03-16T10:50:36.394Z,20.2
2023-03-16T10:55:38.755Z,23.6
2023-03-16T11:00:40.815Z,22.1
2023-03-16T11:05:42.953Z,21
2023-03-16T11:10:57.420Z,17.2
2023-03-16T11:15:49.608Z,17.2
2023-03-16T11:20:51.675Z,21.4
2023-03-16T11:25:53.932Z,21.4
2023-03-16T11:30:56.399Z,23.3
2023-03-16T11:36:01.615Z,19.5
2023-03-16T11:41:04.266Z,17.4
2023-03-16T11:46:06.678Z,21
2023-03-16T11:51:08.967Z,21
2023-03-16T11:56:11.392Z,19.7
2023-03-16T12:01:13.525Z,18.9
2023-03-16T12:06:25.395Z,23.5
2023-03-16T12:11:55.416Z,23.4
2023-03-16T12:16:49.353Z,19.1
2023-03-16T12:21:35.336Z,17.3
2023-03-16T12:30:08.774Z,18.3
2023-03-16T12:50:23.695Z,16.8
2023-03-16T12:51:36.030Z,16.7
2023-03-16T12:56:38.912Z,15.2
2023-03-16T13:01:41.048Z,15.1
2023-03-16T13:07:02.286Z,16
2023-03-16T13:11:52.457Z,14.8
2023-03-16T13:16:55.499Z,13.3
2023-03-16T13:21:57.890Z,13.2
2023-03-16T13:27:00.420Z,11.9
2023-03-16T13:32:02.705Z,11.8
2023-03-16T13:37:05.320Z,12.3
2023-03-16T13:42:07.508Z,12.2
2023-03-16T13:47:09.885Z,12.8
2023-03-16T13:52:12.474Z,13.2
2023-03-16T13:57:14.768Z,13.1
2023-03-16T14:02:16.881Z,12.5
2023-03-16T14:07:19.559Z,11.6
2023-03-16T14:12:21.742Z,11.6
2023-03-16T14:17:23.946Z,11.1
2023-03-16T14:22:26.062Z,10.9
2023-03-16T14:27:28.128Z,10.3
2023-03-16T14:32:31.179Z,9.7
2023-03-16T14:37:38.832Z,9.6
2023-03-16T14:42:42.089Z,9.6
2023-03-16T14:47:44.135Z,10
2023-03-16T14:52:46.163Z,10.3
2023-03-16T14:57:48.425Z,10.4
2023-03-16T15:02:53.428Z,10.4
2023-03-16T15:08:02.973Z,10.3
2023-03-16T15:13:05.276Z,10.3
2023-03-16T15:18:07.350Z,10.2
2023-03-16T15:23:10.038Z,9.9
2023-03-16T15:28:12.591Z,9.8
2023-03-16T15:33:14.780Z,9.7
2023-03-16T15:38:16.980Z,9.7
2023-03-16T15:43:19.309Z,9.6
